createdAt,value
2023-04-29T00:01:40.850Z,18.69
2023-04-29T00:04:12.098Z,18.58
2023-04-29T00:06:43.947Z,18.28
2023-04-29T00:09:16.322Z,18.20
2023-04-29T00:11:49.099Z,18.30
2023-04-29T00:14:20.376Z,18.39
2023-04-29T00:16:52.082Z,18.43
2023-04-29T00:19:23.834Z,18.21
2023-04-29T00:21:56.188Z,18.12
2023-04-29T00:24:28.130Z,17.77
2023-04-29T00:27:00.003Z,17.91
2023-04-29T00:29:31.870Z,17.85
2023-04-29T00:32:03.070Z,17.89
2023-04-29T00:34:35.031Z,18.06
2023-04-29T00:37:06.271Z,18.30
2023-04-29T00:39:37.706Z,18.08
2023-04-29T00:42:09.147Z,17.92
2023-04-29T00:44:40.781Z,17.78
2023-04-29T00:47:13.208Z,17.62
2023-04-29T00:49:44.830Z,17.33
2023-04-29T00:52:15.801Z,17.40
2023-04-29T00:54:47.467Z,17.44
2023-04-29T00:57:18.210Z,18.17
2023-04-29T00:59:50.500Z,18.44
2023-04-29T01:02:22.525Z,19.61
2023-04-29T01:04:55.606Z,20.75
2023-04-29T01:07:48.709Z,20.79
2023-04-29T01:10:31.296Z,21.28
2023-04-29T01:13:15.764Z,20.34
2023-04-29T01:16:05.261Z,19.66
2023-04-29T01:18:45.016Z,19.64
2023-04-29T01:21:19.795Z,19.48
2023-04-29T01:23:57.457Z,19.59
2023-04-29T01:26:33.661Z,19.04
2023-04-29T01:29:45.569Z,18.90
2023-04-29T01:32:21.508Z,18.95
2023-04-29T01:35:19.931Z,18.65
2023-04-29T01:38:01.126Z,19.06
2023-04-29T01:40:48.131Z,19.19
2023-04-29T01:43:26.979Z,19.01
2023-04-29T01:46:00.824Z,19.32
2023-04-29T01:48:33.093Z,19.02
2023-04-29T01:51:16.669Z,18.70
2023-04-29T01:53:52.101Z,18.88
2023-04-29T01:56:23.167Z,18.95
2023-04-29T01:59:06.678Z,18.92
2023-04-29T02:02:00.282Z,18.98
2023-04-29T02:04:35.351Z,18.78
2023-04-29T02:07:07.175Z,18.25
2023-04-29T02:09:42.586Z,18.30
2023-04-29T02:12:15.442Z,18.16
2023-04-29T02:14:51.287Z,18.33
2023-04-29T02:17:22.242Z,18.42
2023-04-29T02:19:53.960Z,18.34
2023-04-29T02:22:25.371Z,18.57
2023-04-29T02:25:00.156Z,18.68
2023-04-29T02:27:33.669Z,18.60
2023-04-29T02:30:06.313Z,19.11
2023-04-29T02:32:37.827Z,19.29
2023-04-29T02:35:10.068Z,19.27
2023-04-29T02:37:41.503Z,19.59
2023-04-29T02:40:14.178Z,19.61
2023-04-29T02:42:45.899Z,19.17
2023-04-29T02:45:17.690Z,19.23
2023-04-29T02:47:49.304Z,18.93
2023-04-29T02:50:20.882Z,18.94
2023-04-29T02:52:52.271Z,18.79
2023-04-29T02:55:23.785Z,18.95
2023-04-29T02:57:55.141Z,18.94
2023-04-29T03:00:26.800Z,18.80
2023-04-29T03:02:59.049Z,19.26
2023-04-29T03:05:30.547Z,19.53
2023-04-29T03:08:02.027Z,19.92
2023-04-29T03:10:34.457Z,19.54
2023-04-29T03:13:06.526Z,19.21
2023-04-29T03:15:38.549Z,18.89
2023-04-29T03:18:11.121Z,18.35
2023-04-29T03:20:42.569Z,18.36
2023-04-29T03:23:13.966Z,18.24
2023-04-29T03:25:45.094Z,18.30
2023-04-29T03:28:16.653Z,18.61
2023-04-29T03:30:48.833Z,18.21
2023-04-29T03:33:20.378Z,18.34
2023-04-29T03:35:52.546Z,18.36
2023-04-29T03:38:27.462Z,17.99
2023-04-29T03:40:59.342Z,17.86
2023-04-29T03:43:30.282Z,18.04
2023-04-29T03:46:02.000Z,18.02
2023-04-29T03:48:33.824Z,18.18
2023-04-29T03:51:05.829Z,18.07
2023-04-29T03:53:38.693Z,17.98
2023-04-29T03:56:10.754Z,18.03
2023-04-29T03:58:42.007Z,18.09
2023-04-29T04:01:13.709Z,18.19
2023-04-29T04:03:48.457Z,18.32
2023-04-29T04:06:20.481Z,18.42
2023-04-29T04:08:52.656Z,18.29
2023-04-29T04:11:37.866Z,18.21
2023-04-29T04:14:09.816Z,18.11
2023-04-29T04:16:41.292Z,17.95
2023-04-29T04:19:13.129Z,17.91
2023-04-29T04:21:47.814Z,17.79
2023-04-29T04:24:19.496Z,17.80
2023-04-29T04:26:51.428Z,17.83
2023-04-29T04:29:30.408Z,17.69
2023-04-29T04:32:06.208Z,17.77
2023-04-29T04:34:40.858Z,17.84
2023-04-29T04:37:13.509Z,17.67
2023-04-29T04:39:47.594Z,17.51
2023-04-29T04:42:19.842Z,17.60
2023-04-29T04:44:52.217Z,17.65
2023-04-29T04:47:34.736Z,17.61
2023-04-29T04:50:11.481Z,17.57
2023-04-29T04:52:43.111Z,17.56
2023-04-29T04:55:27.565Z,17.65
2023-04-29T04:58:00.038Z,17.42
2023-04-29T05:00:31.755Z,17.58
2023-04-29T05:03:03.260Z,17.51
2023-04-29T05:05:36.048Z,17.41
2023-04-29T05:08:07.392Z,17.27
2023-04-29T05:10:44.700Z,17.17
2023-04-29T05:13:17.310Z,17.04
2023-04-29T05:15:48.765Z,17.12
2023-04-29T05:18:24.961Z,17.13
2023-04-29T05:20:56.545Z,16.97
2023-04-29T05:23:28.252Z,17.04
2023-04-29T05:26:00.979Z,16.99
2023-04-29T05:28:32.370Z,16.88
2023-04-29T05:31:06.605Z,16.99
2023-04-29T05:33:38.046Z,17.02
2023-04-29T05:36:09.252Z,17.07
2023-04-29T05:38:40.428Z,17.06
2023-04-29T05:41:13.187Z,17.07
2023-04-29T05:44:16.602Z,17.14
2023-04-29T05:46:50.186Z,17.14
2023-04-29T05:49:22.367Z,17.05
2023-04-29T05:51:53.839Z,17.12
2023-04-29T05:54:25.046Z,17.09
2023-04-29T05:56:56.552Z,17.04
2023-04-29T05:59:28.204Z,17.06
2023-04-29T06:01:59.499Z,17.13
2023-04-29T06:04:31.190Z,17.00
2023-04-29T06:07:10.565Z,16.90
2023-04-29T06:10:08.326Z,16.95
2023-04-29T06:12:39.743Z,16.97
2023-04-29T06:15:11.980Z,16.87
2023-04-29T06:17:43.224Z,16.89
2023-04-29T06:20:15.728Z,16.93
2023-04-29T06:22:48.957Z,16.89
2023-04-29T06:25:20.601Z,17.00
2023-04-29T06:27:54.221Z,16.88
2023-04-29T06:30:29.061Z,17.01
2023-04-29T06:33:00.634Z,16.89
2023-04-29T06:35:32.277Z,16.95
2023-04-29T06:38:17.909Z,16.89
2023-04-29T06:41:07.587Z,16.98
2023-04-29T06:43:57.611Z,17.00
2023-04-29T06:46:55.254Z,17.11
2023-04-29T06:49:46.582Z,17.12
2023-04-29T06:52:20.566Z,17.19
2023-04-29T06:54:52.545Z,17.16
2023-04-29T06:57:23.446Z,17.23
2023-04-29T06:59:54.697Z,17.14
2023-04-29T07:02:26.510Z,17.18
2023-04-29T07:04:58.660Z,17.23
2023-04-29T07:07:29.970Z,17.15
2023-04-29T07:10:01.269Z,17.12
2023-04-29T07:12:33.406Z,17.13
2023-04-29T07:15:05.028Z,17.26
2023-04-29T07:17:37.036Z,17.16
2023-04-29T07:20:09.288Z,17.23
2023-04-29T07:22:41.933Z,17.24
2023-04-29T07:25:13.697Z,17.19
2023-04-29T07:27:45.491Z,17.19
2023-04-29T07:30:17.358Z,17.20
2023-04-29T07:32:48.800Z,17.22
2023-04-29T07:35:22.439Z,17.28
2023-04-29T07:37:53.622Z,17.18
2023-04-29T07:40:25.547Z,17.21
2023-04-29T07:43:06.200Z,17.22
2023-04-29T07:45:37.814Z,17.18
2023-04-29T07:48:08.796Z,17.30
2023-04-29T07:50:40.478Z,17.30
2023-04-29T07:53:13.646Z,17.14
2023-04-29T07:55:45.129Z,17.04
2023-04-29T07:58:16.466Z,17.02
2023-04-29T08:00:49.306Z,16.99
2023-04-29T08:03:20.988Z,16.94
2023-04-29T08:05:55.168Z,16.91
2023-04-29T08:08:26.942Z,16.86
2023-04-29T08:10:57.578Z,16.89
2023-04-29T08:13:28.864Z,16.99
2023-04-29T08:15:59.858Z,17.05
2023-04-29T08:18:32.377Z,17.07
2023-04-29T08:21:02.926Z,17.11
2023-04-29T08:23:34.636Z,17.11
2023-04-29T08:26:06.503Z,17.13
2023-04-29T08:28:37.914Z,17.13
2023-04-29T08:31:09.259Z,17.22
2023-04-29T08:33:40.631Z,17.13
2023-04-29T08:36:12.031Z,17.18
2023-04-29T08:38:43.625Z,17.26
2023-04-29T08:41:16.759Z,17.25
2023-04-29T08:43:48.022Z,17.26
2023-04-29T08:46:19.505Z,17.29
2023-04-29T08:48:51.151Z,17.26
2023-04-29T08:51:22.296Z,17.26
2023-04-29T08:53:53.585Z,17.27
2023-04-29T08:56:27.880Z,17.29
2023-04-29T08:59:05.682Z,17.29
2023-04-29T09:01:39.459Z,17.27
2023-04-29T09:04:29.347Z,17.33
2023-04-29T09:07:01.713Z,17.32
2023-04-29T09:09:34.385Z,17.36
2023-04-29T09:12:06.171Z,17.38
2023-04-29T09:14:39.018Z,17.34
2023-04-29T09:17:10.297Z,17.38
2023-04-29T09:19:41.492Z,17.41
2023-04-29T09:22:13.032Z,17.40
2023-04-29T09:24:45.513Z,17.46
2023-04-29T09:27:30.803Z,17.42
2023-04-29T09:30:05.293Z,17.36
2023-04-29T09:32:38.472Z,17.44
2023-04-29T09:35:28.824Z,17.40
2023-04-29T09:38:20.803Z,17.44
2023-04-29T09:43:28.303Z,17.44
2023-04-29T09:45:59.558Z,17.41
2023-04-29T09:48:35.568Z,17.44
2023-04-29T09:51:07.508Z,17.44
2023-04-29T09:53:39.815Z,17.48
2023-04-29T09:56:10.976Z,17.49
2023-04-29T09:58:43.024Z,17.49
2023-04-29T10:01:15.879Z,17.55
2023-04-29T10:03:48.082Z,17.58
2023-04-29T10:06:20.718Z,17.51
2023-04-29T10:08:52.026Z,17.48
2023-04-29T10:11:23.580Z,17.47
2023-04-29T10:13:55.070Z,17.51
2023-04-29T10:16:32.477Z,17.46
2023-04-29T10:19:08.423Z,17.46
2023-04-29T10:21:40.549Z,17.47
2023-04-29T10:24:12.625Z,17.42
2023-04-29T10:26:44.952Z,17.39
2023-04-29T10:29:15.816Z,17.45
2023-04-29T10:31:49.497Z,17.40
2023-04-29T10:34:21.376Z,17.29
2023-04-29T10:36:53.308Z,17.29
2023-04-29T10:39:35.080Z,17.24
2023-04-29T10:42:08.561Z,17.15
2023-04-29T10:45:17.667Z,17.16
2023-04-29T10:48:10.809Z,17.24
2023-04-29T10:50:51.849Z,17.17
2023-04-29T10:53:25.966Z,17.11
2023-04-29T10:56:00.588Z,17.07
2023-04-29T10:58:47.127Z,17.11
2023-04-29T11:01:19.763Z,17.11
2023-04-29T11:03:56.768Z,17.01
2023-04-29T11:06:42.336Z,17.11
2023-04-29T11:09:22.684Z,17.09
2023-04-29T11:12:04.701Z,17.04
2023-04-29T11:14:43.616Z,17.05
2023-04-29T11:17:21.545Z,17.00
2023-04-29T11:19:54.484Z,17.04
2023-04-29T11:22:27.664Z,17.08
2023-04-29T11:25:03.049Z,17.10
2023-04-29T11:27:44.083Z,17.08
2023-04-29T11:30:16.084Z,17.09
2023-04-29T11:32:47.754Z,17.12
2023-04-29T11:35:23.471Z,17.06
2023-04-29T11:37:55.596Z,17.07
2023-04-29T11:40:27.247Z,17.05
2023-04-29T11:42:58.377Z,17.12
2023-04-29T11:45:29.947Z,17.09
2023-04-29T11:48:01.301Z,17.07
2023-04-29T11:50:34.184Z,17.05
2023-04-29T11:53:05.302Z,16.95
2023-04-29T11:55:36.949Z,16.99
2023-04-29T11:58:08.327Z,16.93
2023-04-29T12:00:39.985Z,16.83
2023-04-29T12:03:20.773Z,16.96
2023-04-29T12:05:58.910Z,16.99
2023-04-29T12:08:31.714Z,16.90
2023-04-29T12:11:03.630Z,16.87
2023-04-29T12:13:35.234Z,16.95
2023-04-29T12:16:07.704Z,16.86
2023-04-29T12:18:39.992Z,16.86
2023-04-29T12:21:11.369Z,16.85
2023-04-29T12:23:43.819Z,16.89
2023-04-29T12:26:15.398Z,16.91
2023-04-29T12:28:47.665Z,16.85
2023-04-29T12:31:18.944Z,16.91
2023-04-29T12:33:50.128Z,16.92
2023-04-29T12:36:21.709Z,16.86
2023-04-29T12:38:55.963Z,16.94
2023-04-29T12:41:44.354Z,16.98
2023-04-29T12:44:15.833Z,16.89
2023-04-29T12:46:47.241Z,16.86
2023-04-29T12:49:20.554Z,16.81
2023-04-29T12:51:52.326Z,16.82
2023-04-29T12:54:23.925Z,16.84
2023-04-29T12:56:55.324Z,16.82
2023-04-29T12:59:27.023Z,16.82
2023-04-29T13:01:58.612Z,16.80
2023-04-29T13:04:29.732Z,16.81
2023-04-29T13:07:04.519Z,16.85
2023-04-29T13:09:37.141Z,16.85
2023-04-29T13:12:09.807Z,17.01
2023-04-29T13:14:41.007Z,17.05
2023-04-29T13:17:12.664Z,16.99
2023-04-29T13:19:51.555Z,17.00
2023-04-29T13:22:23.964Z,16.95
2023-04-29T13:24:56.309Z,17.03
2023-04-29T13:27:28.186Z,17.01
2023-04-29T13:29:59.684Z,16.98
2023-04-29T13:32:43.292Z,17.07
2023-04-29T13:35:17.826Z,16.95
2023-04-29T13:37:50.004Z,17.02
2023-04-29T13:40:21.720Z,16.96
2023-04-29T13:43:02.078Z,16.92
2023-04-29T13:45:40.179Z,16.99
2023-04-29T13:48:34.793Z,16.97
2023-04-29T13:51:48.078Z,17.00
2023-04-29T13:54:48.408Z,16.90
2023-04-29T14:04:33.925Z,16.93
2023-04-29T14:07:05.469Z,16.97
2023-04-29T14:09:36.656Z,16.94
2023-04-29T14:12:08.192Z,16.91
2023-04-29T14:14:39.320Z,16.91
2023-04-29T14:17:10.945Z,16.92
2023-04-29T14:19:41.841Z,16.98
2023-04-29T14:22:13.442Z,17.02
2023-04-29T14:24:44.929Z,17.00
2023-04-29T14:27:15.710Z,16.98
2023-04-29T14:29:49.864Z,16.98
2023-04-29T14:32:21.141Z,16.96
2023-04-29T14:34:52.850Z,16.92
2023-04-29T14:37:24.431Z,16.95
2023-04-29T14:39:56.092Z,16.98
2023-04-29T14:42:27.137Z,16.87
2023-04-29T14:44:58.672Z,16.85
2023-04-29T14:47:30.424Z,16.82
2023-04-29T14:50:01.848Z,16.78
2023-04-29T14:52:33.824Z,16.84
2023-04-29T14:55:05.345Z,16.90
2023-04-29T14:57:36.979Z,16.92
2023-04-29T15:00:09.722Z,16.95
2023-04-29T15:02:41.279Z,16.82
2023-04-29T15:05:12.837Z,16.81
2023-04-29T15:07:44.145Z,16.71
2023-04-29T15:10:15.894Z,16.70
2023-04-29T15:12:47.273Z,16.71
2023-04-29T15:15:19.027Z,16.69
2023-04-29T15:17:50.784Z,16.63
2023-04-29T15:20:22.699Z,16.65
2023-04-29T15:22:54.267Z,16.60
2023-04-29T15:25:27.528Z,16.60
2023-04-29T15:28:00.476Z,16.62
2023-04-29T15:30:32.181Z,16.64
2023-04-29T15:33:02.998Z,16.70
2023-04-29T15:35:35.095Z,16.75
2023-04-29T15:38:07.175Z,16.68
2023-04-29T15:40:38.696Z,16.65
2023-04-29T15:43:10.172Z,16.63
2023-04-29T15:45:41.629Z,16.60
2023-04-29T15:48:13.439Z,16.57
2023-04-29T15:50:45.022Z,16.44
2023-04-29T15:53:16.490Z,16.55
2023-04-29T15:55:48.287Z,16.56
2023-04-29T15:58:19.942Z,16.53
2023-04-29T16:00:51.951Z,16.54
2023-04-29T16:03:22.965Z,16.51
2023-04-29T16:05:54.560Z,16.46
2023-04-29T16:08:25.640Z,16.46
2023-04-29T16:10:57.579Z,16.44
2023-04-29T16:13:29.079Z,16.31
2023-04-29T16:16:00.504Z,16.43
2023-04-29T16:18:31.912Z,16.35
2023-04-29T16:21:04.200Z,16.25
2023-04-29T16:23:35.734Z,16.33
2023-04-29T16:26:07.261Z,16.29
2023-04-29T16:28:39.481Z,16.21
2023-04-29T16:31:14.535Z,16.17
2023-04-29T16:33:45.933Z,16.16
2023-04-29T16:36:17.109Z,16.19
2023-04-29T16:38:48.343Z,16.23
2023-04-29T16:41:20.191Z,16.14
2023-04-29T16:43:50.696Z,16.22
2023-04-29T16:46:21.942Z,16.20
2023-04-29T16:48:58.035Z,16.19
2023-04-29T16:51:30.564Z,16.22
2023-04-29T16:54:02.422Z,16.11
2023-04-29T16:56:34.035Z,16.18
2023-04-29T16:59:05.641Z,16.25
2023-04-29T17:01:37.577Z,16.21
2023-04-29T17:04:12.139Z,16.14
2023-04-29T17:06:43.878Z,16.14
2023-04-29T17:09:15.340Z,16.13
2023-04-29T17:11:46.572Z,16.21
2023-04-29T17:14:18.145Z,16.22
2023-04-29T17:16:49.317Z,16.24
2023-04-29T17:19:20.459Z,16.30
2023-04-29T17:21:52.265Z,16.26
2023-04-29T17:24:23.525Z,16.36
2023-04-29T17:26:54.958Z,16.28
2023-04-29T17:29:26.889Z,16.32
2023-04-29T17:32:01.453Z,16.35
2023-04-29T17:34:35.518Z,16.31
2023-04-29T17:37:07.700Z,16.33
2023-04-29T17:39:38.689Z,16.31
2023-04-29T17:42:09.956Z,16.33
2023-04-29T17:44:41.243Z,16.32
2023-04-29T17:47:14.196Z,16.30
2023-04-29T17:49:46.203Z,16.32
2023-04-29T17:52:19.000Z,16.33
2023-04-29T17:54:50.301Z,16.25
2023-04-29T17:57:22.012Z,16.38
2023-04-29T17:59:53.678Z,16.43
2023-04-29T18:02:24.979Z,16.42
2023-04-29T18:04:56.514Z,16.47
2023-04-29T18:07:27.421Z,16.42
2023-04-29T18:09:58.987Z,16.45
2023-04-29T18:12:30.205Z,16.45
2023-04-29T18:15:03.236Z,16.41
2023-04-29T18:17:35.333Z,16.45
2023-04-29T18:20:07.691Z,16.47
2023-04-29T18:22:38.867Z,16.50
2023-04-29T18:25:10.551Z,16.49
2023-04-29T18:27:41.093Z,16.52
2023-04-29T18:30:13.346Z,16.50
2023-04-29T18:32:44.024Z,16.49
2023-04-29T18:35:15.134Z,16.48
2023-04-29T18:37:46.515Z,16.47
2023-04-29T18:40:17.635Z,16.56
2023-04-29T18:42:49.930Z,16.57
2023-04-29T18:45:21.606Z,16.63
2023-04-29T18:47:53.200Z,16.68
2023-04-29T18:50:24.947Z,16.67
2023-04-29T18:52:56.681Z,16.67
2023-04-29T18:55:28.258Z,16.76
2023-04-29T18:57:59.267Z,16.74
2023-04-29T19:00:31.174Z,16.81
2023-04-29T19:03:02.070Z,16.78
2023-04-29T19:05:33.324Z,16.81
2023-04-29T19:08:04.556Z,16.78
2023-04-29T19:10:35.630Z,16.82
2023-04-29T19:13:07.341Z,17.01
2023-04-29T19:15:38.965Z,17.06
2023-04-29T19:18:10.329Z,17.01
2023-04-29T19:20:42.081Z,17.03
2023-04-29T19:23:13.400Z,17.06
2023-04-29T19:25:45.604Z,17.08
2023-04-29T19:28:16.628Z,17.12
2023-04-29T19:30:48.715Z,17.09
2023-04-29T19:33:20.082Z,17.09
2023-04-29T19:35:51.402Z,17.11
2023-04-29T19:38:22.560Z,17.13
2023-04-29T19:40:57.369Z,17.21
2023-04-29T19:43:28.671Z,17.22
2023-04-29T19:46:00.559Z,17.33
2023-04-29T19:48:33.153Z,17.29
2023-04-29T19:51:04.537Z,17.38
2023-04-29T19:53:36.773Z,17.30
2023-04-29T19:56:08.667Z,17.47
2023-04-29T19:58:39.316Z,17.40
2023-04-29T20:01:11.038Z,17.45
2023-04-29T20:03:43.162Z,17.40
2023-04-29T20:06:15.076Z,17.45
2023-04-29T20:08:46.963Z,17.44
2023-04-29T20:11:19.056Z,17.45
2023-04-29T20:13:50.291Z,17.45
2023-04-29T20:16:21.772Z,17.53
2023-04-29T20:18:53.067Z,17.63
2023-04-29T20:21:25.076Z,17.71
2023-04-29T20:23:56.735Z,17.80
2023-04-29T20:26:28.861Z,17.92
2023-04-29T20:29:01.352Z,18.03
2023-04-29T20:31:33.128Z,18.07
2023-04-29T20:34:03.968Z,17.97
2023-04-29T20:36:35.031Z,17.98
2023-04-29T20:39:08.248Z,18.02
2023-04-29T20:41:40.212Z,18.05
2023-04-29T20:44:11.921Z,18.02
2023-04-29T20:46:43.578Z,18.04
2023-04-29T20:49:15.154Z,18.33
2023-04-29T20:51:46.741Z,18.59
2023-04-29T20:54:18.308Z,19.27
2023-04-29T20:56:49.469Z,18.83
2023-04-29T20:59:20.507Z,18.86
2023-04-29T21:01:52.265Z,18.46
2023-04-29T21:04:24.732Z,18.51
2023-04-29T21:06:55.994Z,18.42
2023-04-29T21:09:27.530Z,18.53
2023-04-29T21:12:03.053Z,18.78
2023-04-29T21:14:35.089Z,19.12
2023-04-29T21:17:06.595Z,19.46
2023-04-29T21:19:39.116Z,19.38
2023-04-29T21:22:10.738Z,19.55
2023-04-29T21:24:42.252Z,19.60
2023-04-29T21:27:13.768Z,19.51
2023-04-29T21:29:44.521Z,19.87
2023-04-29T21:32:19.762Z,19.77
2023-04-29T21:34:51.428Z,19.81
2023-04-29T21:37:22.950Z,19.85
2023-04-29T21:39:54.202Z,19.91
2023-04-29T21:42:27.536Z,19.95
2023-04-29T21:45:02.089Z,19.73
2023-04-29T21:47:36.949Z,19.83
2023-04-29T21:50:10.895Z,20.06
2023-04-29T21:52:42.346Z,20.26
2023-04-29T21:55:13.649Z,19.98
2023-04-29T21:57:45.534Z,19.75
2023-04-29T22:00:34.525Z,20.02
2023-04-29T22:03:06.979Z,20.13
2023-04-29T22:05:39.212Z,19.82
2023-04-29T22:08:10.722Z,19.55
2023-04-29T22:10:43.002Z,19.74
2023-04-29T22:13:14.513Z,19.60
2023-04-29T22:15:45.751Z,19.77
2023-04-29T22:18:17.346Z,20.60
2023-04-29T22:20:48.273Z,20.77
2023-04-29T22:23:19.742Z,21.65
2023-04-29T22:25:51.209Z,22.32
2023-04-29T22:28:22.703Z,21.25
2023-04-29T22:30:54.468Z,21.06
2023-04-29T22:33:26.162Z,20.80
2023-04-29T22:35:57.483Z,20.35
2023-04-29T22:38:28.682Z,20.17
2023-04-29T22:41:00.174Z,20.13
2023-04-29T22:43:33.711Z,20.35
2023-04-29T22:46:06.759Z,20.08
2023-04-29T22:48:37.991Z,20.45
2023-04-29T22:51:10.904Z,20.42
2023-04-29T22:53:42.705Z,20.45
2023-04-29T22:56:14.187Z,20.35
2023-04-29T22:58:45.885Z,20.52
2023-04-29T23:01:17.236Z,20.49
2023-04-29T23:03:48.353Z,20.48
2023-04-29T23:06:19.607Z,20.61
2023-04-29T23:08:51.316Z,20.84
2023-04-29T23:11:23.391Z,20.79
2023-04-29T23:13:56.091Z,21.03
2023-04-29T23:16:27.437Z,21.07
2023-04-29T23:18:58.660Z,20.82
2023-04-29T23:21:29.960Z,20.88
2023-04-29T23:24:02.854Z,20.99
2023-04-29T23:26:34.071Z,20.84
2023-04-29T23:29:05.269Z,20.73
2023-04-29T23:31:36.649Z,20.58
2023-04-29T23:34:09.855Z,20.69
2023-04-29T23:36:41.304Z,20.74
2023-04-29T23:39:12.524Z,20.71
2023-04-29T23:41:43.611Z,20.83
2023-04-29T23:44:14.744Z,20.61
2023-04-29T23:46:46.041Z,20.64
2023-04-29T23:49:17.614Z,20.82
2023-04-29T23:51:48.919Z,20.57
2023-04-29T23:54:19.952Z,20.48
2023-04-29T23:56:51.035Z,20.32
2023-04-29T23:59:22.459Z,20.05
